sensor_id;sensor_type;location;lat;lon;timestamp;P1;durP1;ratioP1;P2;durP2;ratioP2
77814;SDS011;67002;52.124;21.210;2023-03-23T00:02:25;5.40;;;4.90;;
77814;SDS011;67002;52.124;21.210;2023-03-23T00:04:53;5.60;;;5.10;;
77814;SDS011;67002;52.124;21.210;2023-03-23T00:07:22;5.50;;;5.00;;
77814;SDS011;67002;52.124;21.210;2023-03-23T00:09:54;5.70;;;5.20;;
77814;SDS011;67002;52.124;21.210;2023-03-23T00:12:23;5.40;;;4.90;;
77814;SDS011;67002;52.124;21.210;2023-03-23T00:14:55;5.60;;;5.10;;
77814;SDS011;67002;52.124;21.210;2023-03-23T00:17:23;5.20;;;4.70;;
77814;SDS011;67002;52.124;21.210;2023-03-23T00:19:52;5.40;;;4.90;;
77814;SDS011;67002;52.124;21.210;2023-03-23T00:22:20;5.60;;;5.10;;
77814;SDS011;67002;52.124;21.210;2023-03-23T00:24:51;6.60;;;5.20;;
77814;SDS011;67002;52.124;21.210;2023-03-23T00:27:20;5.50;;;5.00;;
77814;SDS011;67002;52.124;21.210;2023-03-23T00:32:19;5.50;;;5.00;;
77814;SDS011;67002;52.124;21.210;2023-03-23T00:34:55;5.50;;;5.00;;
77814;SDS011;67002;52.124;21.210;2023-03-23T00:37:25;5.30;;;4.80;;
77814;SDS011;67002;52.124;21.210;2023-03-23T00:39:53;6.00;;;5.40;;
77814;SDS011;67002;52.124;21.210;2023-03-23T00:42:23;5.30;;;4.80;;
77814;SDS011;67002;52.124;21.210;2023-03-23T00:44:51;5.40;;;4.80;;
77814;SDS011;67002;52.124;21.210;2023-03-23T00:47:26;5.60;;;5.00;;
77814;SDS011;67002;52.124;21.210;2023-03-23T00:49:54;6.00;;;5.40;;
77814;SDS011;67002;52.124;21.210;2023-03-23T00:52:22;5.70;;;5.20;;
77814;SDS011;67002;52.124;21.210;2023-03-23T00:54:50;5.60;;;5.10;;
77814;SDS011;67002;52.124;21.210;2023-03-23T00:57:19;5.60;;;5.10;;
77814;SDS011;67002;52.124;21.210;2023-03-23T00:59:50;5.20;;;4.70;;
77814;SDS011;67002;52.124;21.210;2023-03-23T01:02:18;5.90;;;5.30;;
77814;SDS011;67002;52.124;21.210;2023-03-23T01:04:51;5.60;;;5.10;;
77814;SDS011;67002;52.124;21.210;2023-03-23T01:07:19;5.50;;;5.00;;
77814;SDS011;67002;52.124;21.210;2023-03-23T01:09:50;5.90;;;5.30;;
77814;SDS011;67002;52.124;21.210;2023-03-23T01:12:20;6.30;;;5.40;;
77814;SDS011;67002;52.124;21.210;2023-03-23T01:14:50;6.40;;;5.80;;
77814;SDS011;67002;52.124;21.210;2023-03-23T01:17:18;5.30;;;4.80;;
77814;SDS011;67002;52.124;21.210;2023-03-23T01:19:47;6.00;;;5.40;;
77814;SDS011;67002;52.124;21.210;2023-03-23T01:22:15;5.90;;;5.30;;
77814;SDS011;67002;52.124;21.210;2023-03-23T01:24:43;5.80;;;5.20;;
77814;SDS011;67002;52.124;21.210;2023-03-23T01:29:39;5.20;;;4.50;;
77814;SDS011;67002;52.124;21.210;2023-03-23T01:32:07;5.40;;;4.90;;
77814;SDS011;67002;52.124;21.210;2023-03-23T01:34:36;5.50;;;5.00;;
77814;SDS011;67002;52.124;21.210;2023-03-23T01:37:04;5.60;;;5.00;;
77814;SDS011;67002;52.124;21.210;2023-03-23T01:39:32;5.70;;;5.20;;
77814;SDS011;67002;52.124;21.210;2023-03-23T01:42:00;5.50;;;5.00;;
77814;SDS011;67002;52.124;21.210;2023-03-23T01:47:41;6.10;;;5.60;;
77814;SDS011;67002;52.124;21.210;2023-03-23T01:50:09;4.90;;;4.50;;
77814;SDS011;67002;52.124;21.210;2023-03-23T01:52:37;5.50;;;5.00;;
77814;SDS011;67002;52.124;21.210;2023-03-23T01:55:06;5.50;;;5.00;;
77814;SDS011;67002;52.124;21.210;2023-03-23T01:57:35;6.40;;;5.50;;
77814;SDS011;67002;52.124;21.210;2023-03-23T02:00:05;5.20;;;4.60;;
77814;SDS011;67002;52.124;21.210;2023-03-23T02:02:41;5.50;;;4.90;;
77814;SDS011;67002;52.124;21.210;2023-03-23T02:05:10;5.20;;;4.70;;
77814;SDS011;67002;52.124;21.210;2023-03-23T02:07:41;5.20;;;4.70;;
77814;SDS011;67002;52.124;21.210;2023-03-23T02:10:10;5.10;;;4.50;;
77814;SDS011;67002;52.124;21.210;2023-03-23T02:12:38;5.50;;;4.90;;
77814;SDS011;67002;52.124;21.210;2023-03-23T02:15:07;5.50;;;4.90;;
77814;SDS011;67002;52.124;21.210;2023-03-23T02:17:37;5.40;;;4.90;;
77814;SDS011;67002;52.124;21.210;2023-03-23T02:20:17;6.00;;;5.40;;
77814;SDS011;67002;52.124;21.210;2023-03-23T02:30:02;4.90;;;4.40;;
77814;SDS011;67002;52.124;21.210;2023-03-23T02:32:47;5.20;;;4.70;;
77814;SDS011;67002;52.124;21.210;2023-03-23T02:35:28;5.10;;;4.60;;
77814;SDS011;67002;52.124;21.210;2023-03-23T02:37:58;5.40;;;4.90;;
77814;SDS011;67002;52.124;21.210;2023-03-23T02:40:30;5.30;;;4.80;;
77814;SDS011;67002;52.124;21.210;2023-03-23T02:43:05;5.10;;;4.60;;
77814;SDS011;67002;52.124;21.210;2023-03-23T02:45:35;6.60;;;4.90;;
77814;SDS011;67002;52.124;21.210;2023-03-23T02:48:05;5.50;;;5.00;;
77814;SDS011;67002;52.124;21.210;2023-03-23T02:50:33;4.90;;;4.40;;
77814;SDS011;67002;52.124;21.210;2023-03-23T02:53:04;4.60;;;4.20;;
77814;SDS011;67002;52.124;21.210;2023-03-23T02:55:34;5.10;;;4.60;;
77814;SDS011;67002;52.124;21.210;2023-03-23T02:58:09;5.70;;;4.90;;
77814;SDS011;67002;52.124;21.210;2023-03-23T03:00:40;6.00;;;5.30;;
77814;SDS011;67002;52.124;21.210;2023-03-23T03:03:10;6.10;;;5.00;;
77814;SDS011;67002;52.124;21.210;2023-03-23T03:05:42;5.80;;;4.90;;
77814;SDS011;67002;52.124;21.210;2023-03-23T03:08:17;5.70;;;5.10;;
77814;SDS011;67002;52.124;21.210;2023-03-23T03:10:50;5.20;;;4.70;;
77814;SDS011;67002;52.124;21.210;2023-03-23T03:13:24;5.00;;;4.50;;
77814;SDS011;67002;52.124;21.210;2023-03-23T03:16:00;4.40;;;4.00;;
77814;SDS011;67002;52.124;21.210;2023-03-23T03:18:33;5.30;;;4.80;;
77814;SDS011;67002;52.124;21.210;2023-03-23T03:21:07;5.50;;;5.00;;
77814;SDS011;67002;52.124;21.210;2023-03-23T03:23:41;5.40;;;4.80;;
77814;SDS011;67002;52.124;21.210;2023-03-23T03:26:11;5.50;;;4.90;;
77814;SDS011;67002;52.124;21.210;2023-03-23T03:28:50;5.70;;;5.20;;
77814;SDS011;67002;52.124;21.210;2023-03-23T03:31:20;6.30;;;5.70;;
77814;SDS011;67002;52.124;21.210;2023-03-23T03:33:51;5.80;;;5.30;;
77814;SDS011;67002;52.124;21.210;2023-03-23T03:36:20;5.20;;;4.70;;
77814;SDS011;67002;52.124;21.210;2023-03-23T03:38:50;5.40;;;4.90;;
77814;SDS011;67002;52.124;21.210;2023-03-23T03:41:19;6.10;;;5.50;;
77814;SDS011;67002;52.124;21.210;2023-03-23T03:43:50;5.50;;;5.00;;
77814;SDS011;67002;52.124;21.210;2023-03-23T03:46:18;5.90;;;5.30;;
77814;SDS011;67002;52.124;21.210;2023-03-23T03:48:47;6.00;;;5.40;;
77814;SDS011;67002;52.124;21.210;2023-03-23T03:51:19;6.50;;;5.90;;
77814;SDS011;67002;52.124;21.210;2023-03-23T03:53:50;5.50;;;4.60;;
77814;SDS011;67002;52.124;21.210;2023-03-23T03:56:18;5.50;;;4.70;;
77814;SDS011;67002;52.124;21.210;2023-03-23T03:58:56;5.20;;;4.70;;
77814;SDS011;67002;52.124;21.210;2023-03-23T04:01:43;5.30;;;4.80;;
77814;SDS011;67002;52.124;21.210;2023-03-23T04:04:11;5.20;;;4.70;;
77814;SDS011;67002;52.124;21.210;2023-03-23T04:06:40;5.60;;;5.10;;
77814;SDS011;67002;52.124;21.210;2023-03-23T04:09:08;5.00;;;4.60;;
77814;SDS011;67002;52.124;21.210;2023-03-23T04:11:37;5.10;;;4.60;;
77814;SDS011;67002;52.124;21.210;2023-03-23T04:14:25;4.80;;;4.20;;
77814;SDS011;67002;52.124;21.210;2023-03-23T04:16:54;5.80;;;5.20;;
77814;SDS011;67002;52.124;21.210;2023-03-23T04:19:24;5.20;;;4.70;;
77814;SDS011;67002;52.124;21.210;2023-03-23T04:21:55;4.90;;;4.40;;
77814;SDS011;67002;52.124;21.210;2023-03-23T04:24:25;5.00;;;4.50;;
77814;SDS011;67002;52.124;21.210;2023-03-23T04:26:55;5.30;;;4.80;;
77814;SDS011;67002;52.124;21.210;2023-03-23T04:29:28;5.20;;;4.70;;
77814;SDS011;67002;52.124;21.210;2023-03-23T04:32:16;5.30;;;4.60;;
77814;SDS011;67002;52.124;21.210;2023-03-23T04:34:49;4.90;;;4.50;;
77814;SDS011;67002;52.124;21.210;2023-03-23T04:37:18;5.00;;;4.60;;
77814;SDS011;67002;52.124;21.210;2023-03-23T04:39:47;5.40;;;4.40;;
77814;SDS011;67002;52.124;21.210;2023-03-23T04:42:15;5.20;;;4.70;;
77814;SDS011;67002;52.124;21.210;2023-03-23T04:45:15;4.80;;;4.40;;
77814;SDS011;67002;52.124;21.210;2023-03-23T04:47:49;5.00;;;4.50;;
77814;SDS011;67002;52.124;21.210;2023-03-23T04:50:24;5.40;;;4.90;;
77814;SDS011;67002;52.124;21.210;2023-03-23T04:52:59;4.70;;;4.30;;
77814;SDS011;67002;52.124;21.210;2023-03-23T04:55:31;5.60;;;4.30;;
77814;SDS011;67002;52.124;21.210;2023-03-23T04:58:02;5.00;;;4.50;;
77814;SDS011;67002;52.124;21.210;2023-03-23T05:00:54;4.30;;;3.90;;
77814;SDS011;67002;52.124;21.210;2023-03-23T05:03:23;5.80;;;4.90;;
77814;SDS011;67002;52.124;21.210;2023-03-23T05:05:53;4.70;;;4.20;;
77814;SDS011;67002;52.124;21.210;2023-03-23T05:08:22;5.30;;;4.80;;
77814;SDS011;67002;52.124;21.210;2023-03-23T05:10:51;5.00;;;4.50;;
77814;SDS011;67002;52.124;21.210;2023-03-23T05:13:27;4.90;;;4.40;;
77814;SDS011;67002;52.124;21.210;2023-03-23T05:16:02;5.00;;;4.50;;
77814;SDS011;67002;52.124;21.210;2023-03-23T05:18:34;4.60;;;4.10;;
77814;SDS011;67002;52.124;21.210;2023-03-23T05:21:04;6.10;;;5.00;;
77814;SDS011;67002;52.124;21.210;2023-03-23T05:23:35;5.30;;;4.60;;
77814;SDS011;67002;52.124;21.210;2023-03-23T05:26:11;5.40;;;4.90;;
77814;SDS011;67002;52.124;21.210;2023-03-23T05:28:40;5.20;;;4.70;;
77814;SDS011;67002;52.124;21.210;2023-03-23T05:31:24;5.00;;;4.50;;
77814;SDS011;67002;52.124;21.210;2023-03-23T05:33:53;4.70;;;4.20;;
77814;SDS011;67002;52.124;21.210;2023-03-23T05:36:41;6.20;;;4.70;;
77814;SDS011;67002;52.124;21.210;2023-03-23T05:39:13;5.00;;;4.50;;
77814;SDS011;67002;52.124;21.210;2023-03-23T05:42:01;5.40;;;4.90;;
77814;SDS011;67002;52.124;21.210;2023-03-23T05:44:40;5.00;;;4.40;;
77814;SDS011;67002;52.124;21.210;2023-03-23T05:47:09;4.90;;;4.40;;
77814;SDS011;67002;52.124;21.210;2023-03-23T05:49:39;5.20;;;4.70;;
77814;SDS011;67002;52.124;21.210;2023-03-23T05:52:09;4.70;;;4.20;;
77814;SDS011;67002;52.124;21.210;2023-03-23T05:54:37;5.40;;;4.90;;
77814;SDS011;67002;52.124;21.210;2023-03-23T05:57:09;4.70;;;4.20;;
77814;SDS011;67002;52.124;21.210;2023-03-23T05:59:43;4.60;;;4.20;;
77814;SDS011;67002;52.124;21.210;2023-03-23T06:02:17;4.50;;;4.00;;
77814;SDS011;67002;52.124;21.210;2023-03-23T06:04:45;4.70;;;3.90;;
77814;SDS011;67002;52.124;21.210;2023-03-23T06:07:26;4.40;;;3.90;;
77814;SDS011;67002;52.124;21.210;2023-03-23T06:10:02;4.30;;;3.90;;
77814;SDS011;67002;52.124;21.210;2023-03-23T06:12:37;3.90;;;3.50;;
77814;SDS011;67002;52.124;21.210;2023-03-23T06:15:07;4.10;;;3.70;;
77814;SDS011;67002;52.124;21.210;2023-03-23T06:17:55;4.00;;;3.50;;
77814;SDS011;67002;52.124;21.210;2023-03-23T06:20:29;4.20;;;3.80;;
77814;SDS011;67002;52.124;21.210;2023-03-23T06:22:59;3.90;;;3.50;;
77814;SDS011;67002;52.124;21.210;2023-03-23T06:25:31;4.50;;;3.80;;
77814;SDS011;67002;52.124;21.210;2023-03-23T06:28:03;3.50;;;3.20;;
77814;SDS011;67002;52.124;21.210;2023-03-23T06:30:32;4.10;;;3.40;;
77814;SDS011;67002;52.124;21.210;2023-03-23T06:35:53;3.40;;;3.10;;
77814;SDS011;67002;52.124;21.210;2023-03-23T06:38:48;3.20;;;2.90;;
77814;SDS011;67002;52.124;21.210;2023-03-23T06:41:21;4.10;;;3.10;;
77814;SDS011;67002;52.124;21.210;2023-03-23T06:43:52;3.50;;;3.20;;
77814;SDS011;67002;52.124;21.210;2023-03-23T06:49:13;3.20;;;2.90;;
77814;SDS011;67002;52.124;21.210;2023-03-23T06:51:50;3.50;;;2.90;;
77814;SDS011;67002;52.124;21.210;2023-03-23T06:54:18;3.40;;;3.10;;
77814;SDS011;67002;52.124;21.210;2023-03-23T06:56:47;2.90;;;2.60;;
77814;SDS011;67002;52.124;21.210;2023-03-23T06:59:15;3.10;;;2.70;;
77814;SDS011;67002;52.124;21.210;2023-03-23T07:01:43;3.40;;;3.10;;
77814;SDS011;67002;52.124;21.210;2023-03-23T07:04:13;3.50;;;3.20;;
77814;SDS011;67002;52.124;21.210;2023-03-23T07:06:49;3.50;;;3.10;;
77814;SDS011;67002;52.124;21.210;2023-03-23T07:09:20;2.90;;;2.60;;
77814;SDS011;67002;52.124;21.210;2023-03-23T07:11:52;2.80;;;2.60;;
77814;SDS011;67002;52.124;21.210;2023-03-23T07:14:29;3.20;;;2.70;;
77814;SDS011;67002;52.124;21.210;2023-03-23T07:17:00;4.20;;;2.90;;
77814;SDS011;67002;52.124;21.210;2023-03-23T07:19:29;3.50;;;2.80;;
77814;SDS011;67002;52.124;21.210;2023-03-23T07:21:59;3.10;;;2.80;;
77814;SDS011;67002;52.124;21.210;2023-03-23T07:27:12;3.30;;;2.70;;
77814;SDS011;67002;52.124;21.210;2023-03-23T07:29:43;3.60;;;3.00;;
77814;SDS011;67002;52.124;21.210;2023-03-23T07:32:22;3.70;;;2.80;;
77814;SDS011;67002;52.124;21.210;2023-03-23T07:34:51;2.90;;;2.60;;
77814;SDS011;67002;52.124;21.210;2023-03-23T07:37:34;2.90;;;2.60;;
77814;SDS011;67002;52.124;21.210;2023-03-23T07:40:03;2.80;;;2.50;;
77814;SDS011;67002;52.124;21.210;2023-03-23T07:42:42;3.20;;;2.90;;
77814;SDS011;67002;52.124;21.210;2023-03-23T07:45:13;3.10;;;2.80;;
77814;SDS011;67002;52.124;21.210;2023-03-23T07:47:42;3.80;;;2.90;;
77814;SDS011;67002;52.124;21.210;2023-03-23T07:50:13;3.00;;;2.70;;
77814;SDS011;67002;52.124;21.210;2023-03-23T07:52:43;3.10;;;2.80;;
77814;SDS011;67002;52.124;21.210;2023-03-23T07:55:12;3.00;;;2.70;;
77814;SDS011;67002;52.124;21.210;2023-03-23T07:58:13;3.10;;;2.70;;
77814;SDS011;67002;52.124;21.210;2023-03-23T08:00:46;3.30;;;2.70;;
77814;SDS011;67002;52.124;21.210;2023-03-23T08:03:17;3.70;;;2.50;;
77814;SDS011;67002;52.124;21.210;2023-03-23T08:05:59;2.80;;;2.50;;
77814;SDS011;67002;52.124;21.210;2023-03-23T08:08:48;3.10;;;2.60;;
77814;SDS011;67002;52.124;21.210;2023-03-23T08:11:35;3.00;;;2.60;;
77814;SDS011;67002;52.124;21.210;2023-03-23T08:14:13;2.60;;;2.40;;
77814;SDS011;67002;52.124;21.210;2023-03-23T08:17:17;4.00;;;2.40;;
77814;SDS011;67002;52.124;21.210;2023-03-23T08:20:08;2.60;;;2.30;;
77814;SDS011;67002;52.124;21.210;2023-03-23T08:22:59;2.50;;;2.30;;
77814;SDS011;67002;52.124;21.210;2023-03-23T08:25:54;2.80;;;2.40;;
77814;SDS011;67002;52.124;21.210;2023-03-23T08:28:52;2.80;;;2.50;;
77814;SDS011;67002;52.124;21.210;2023-03-23T08:31:44;3.10;;;2.40;;
77814;SDS011;67002;52.124;21.210;2023-03-23T08:34:30;3.70;;;2.40;;
77814;SDS011;67002;52.124;21.210;2023-03-23T08:37:22;2.80;;;2.10;;
77814;SDS011;67002;52.124;21.210;2023-03-23T08:39:53;3.90;;;2.30;;
77814;SDS011;67002;52.124;21.210;2023-03-23T08:42:26;2.40;;;2.00;;
77814;SDS011;67002;52.124;21.210;2023-03-23T08:45:10;2.80;;;2.10;;
77814;SDS011;67002;52.124;21.210;2023-03-23T08:48:05;2.10;;;1.90;;
77814;SDS011;67002;52.124;21.210;2023-03-23T08:50:52;2.50;;;1.90;;
77814;SDS011;67002;52.124;21.210;2023-03-23T08:53:35;2.20;;;1.80;;
77814;SDS011;67002;52.124;21.210;2023-03-23T08:58:49;2.50;;;2.10;;
77814;SDS011;67002;52.124;21.210;2023-03-23T09:01:36;1.90;;;1.70;;
77814;SDS011;67002;52.124;21.210;2023-03-23T09:04:23;2.10;;;1.70;;
77814;SDS011;67002;52.124;21.210;2023-03-23T09:07:15;2.20;;;1.70;;
77814;SDS011;67002;52.124;21.210;2023-03-23T09:09:43;2.60;;;1.80;;
77814;SDS011;67002;52.124;21.210;2023-03-23T09:12:11;2.20;;;1.90;;
77814;SDS011;67002;52.124;21.210;2023-03-23T09:14:40;1.80;;;1.60;;
77814;SDS011;67002;52.124;21.210;2023-03-23T09:17:08;2.30;;;1.90;;
77814;SDS011;67002;52.124;21.210;2023-03-23T09:19:39;3.10;;;1.70;;
77814;SDS011;67002;52.124;21.210;2023-03-23T09:22:08;2.00;;;1.80;;
77814;SDS011;67002;52.124;21.210;2023-03-23T09:24:36;1.90;;;1.60;;
77814;SDS011;67002;52.124;21.210;2023-03-23T09:27:04;2.00;;;1.50;;
77814;SDS011;67002;52.124;21.210;2023-03-23T09:29:33;1.90;;;1.70;;
77814;SDS011;67002;52.124;21.210;2023-03-23T09:32:02;2.30;;;1.90;;
77814;SDS011;67002;52.124;21.210;2023-03-23T09:34:30;2.10;;;1.70;;
77814;SDS011;67002;52.124;21.210;2023-03-23T09:37:02;2.20;;;1.80;;
77814;SDS011;67002;52.124;21.210;2023-03-23T09:39:30;2.90;;;1.80;;
77814;SDS011;67002;52.124;21.210;2023-03-23T09:42:01;2.40;;;1.80;;
77814;SDS011;67002;52.124;21.210;2023-03-23T09:44:39;2.40;;;1.70;;
77814;SDS011;67002;52.124;21.210;2023-03-23T09:47:14;3.70;;;1.60;;
77814;SDS011;67002;52.124;21.210;2023-03-23T09:49:48;2.00;;;1.70;;
77814;SDS011;67002;52.124;21.210;2023-03-23T09:52:19;2.50;;;1.70;;
77814;SDS011;67002;52.124;21.210;2023-03-23T09:54:47;2.80;;;1.70;;
77814;SDS011;67002;52.124;21.210;2023-03-23T09:57:23;2.50;;;1.50;;
77814;SDS011;67002;52.124;21.210;2023-03-23T09:59:57;2.40;;;1.50;;
77814;SDS011;67002;52.124;21.210;2023-03-23T10:02:40;1.70;;;1.40;;
77814;SDS011;67002;52.124;21.210;2023-03-23T10:05:17;2.00;;;1.70;;
77814;SDS011;67002;52.124;21.210;2023-03-23T10:07:52;2.00;;;1.70;;
77814;SDS011;67002;52.124;21.210;2023-03-23T10:10:20;2.20;;;2.00;;
77814;SDS011;67002;52.124;21.210;2023-03-23T10:12:51;2.00;;;1.70;;
77814;SDS011;67002;52.124;21.210;2023-03-23T10:15:25;3.70;;;2.00;;
77814;SDS011;67002;52.124;21.210;2023-03-23T10:17:57;2.30;;;1.70;;
77814;SDS011;67002;52.124;21.210;2023-03-23T10:20:33;2.60;;;1.70;;
77814;SDS011;67002;52.124;21.210;2023-03-23T10:23:12;3.80;;;2.30;;
77814;SDS011;67002;52.124;21.210;2023-03-23T10:25:42;2.20;;;1.90;;
77814;SDS011;67002;52.124;21.210;2023-03-23T10:28:18;2.70;;;1.90;;
77814;SDS011;67002;52.124;21.210;2023-03-23T10:30:51;4.20;;;2.10;;
77814;SDS011;67002;52.124;21.210;2023-03-23T10:33:23;2.80;;;2.10;;
77814;SDS011;67002;52.124;21.210;2023-03-23T10:35:59;2.40;;;1.90;;
77814;SDS011;67002;52.124;21.210;2023-03-23T10:38:33;3.50;;;2.00;;
77814;SDS011;67002;52.124;21.210;2023-03-23T10:41:05;2.50;;;1.90;;
77814;SDS011;67002;52.124;21.210;2023-03-23T10:43:38;2.50;;;1.70;;
77814;SDS011;67002;52.124;21.210;2023-03-23T10:46:21;3.00;;;2.30;;
77814;SDS011;67002;52.124;21.210;2023-03-23T10:48:53;2.20;;;1.60;;
77814;SDS011;67002;52.124;21.210;2023-03-23T10:51:27;3.70;;;2.10;;
77814;SDS011;67002;52.124;21.210;2023-03-23T10:53:59;1.90;;;1.50;;
77814;SDS011;67002;52.124;21.210;2023-03-23T10:56:29;2.00;;;1.70;;
77814;SDS011;67002;52.124;21.210;2023-03-23T10:59:14;1.90;;;1.40;;
77814;SDS011;67002;52.124;21.210;2023-03-23T11:01:48;2.00;;;1.40;;
77814;SDS011;67002;52.124;21.210;2023-03-23T11:04:19;1.90;;;1.40;;
77814;SDS011;67002;52.124;21.210;2023-03-23T11:06:50;3.30;;;1.40;;
77814;SDS011;67002;52.124;21.210;2023-03-23T11:09:19;1.80;;;1.40;;
77814;SDS011;67002;52.124;21.210;2023-03-23T11:11:49;2.20;;;1.50;;
77814;SDS011;67002;52.124;21.210;2023-03-23T11:14:18;1.50;;;1.40;;
77814;SDS011;67002;52.124;21.210;2023-03-23T11:16:52;1.40;;;1.30;;
77814;SDS011;67002;52.124;21.210;2023-03-23T11:19:23;1.70;;;1.50;;
77814;SDS011;67002;52.124;21.210;2023-03-23T11:21:53;1.60;;;1.40;;
77814;SDS011;67002;52.124;21.210;2023-03-23T11:24:24;1.90;;;1.40;;
77814;SDS011;67002;52.124;21.210;2023-03-23T11:26:53;2.20;;;1.80;;
77814;SDS011;67002;52.124;21.210;2023-03-23T11:29:24;1.70;;;1.50;;
77814;SDS011;67002;52.124;21.210;2023-03-23T11:31:53;2.00;;;1.40;;
77814;SDS011;67002;52.124;21.210;2023-03-23T11:34:34;2.10;;;1.50;;
77814;SDS011;67002;52.124;21.210;2023-03-23T11:37:08;1.90;;;1.40;;
77814;SDS011;67002;52.124;21.210;2023-03-23T11:39:46;1.70;;;1.60;;
77814;SDS011;67002;52.124;21.210;2023-03-23T11:42:18;2.00;;;1.40;;
77814;SDS011;67002;52.124;21.210;2023-03-23T11:44:48;1.50;;;1.40;;
77814;SDS011;67002;52.124;21.210;2023-03-23T11:49:47;1.30;;;1.10;;
77814;SDS011;67002;52.124;21.210;2023-03-23T11:52:21;1.20;;;1.00;;
77814;SDS011;67002;52.124;21.210;2023-03-23T11:54:56;3.10;;;0.90;;
77814;SDS011;67002;52.124;21.210;2023-03-23T11:57:29;0.80;;;0.80;;
77814;SDS011;67002;52.124;21.210;2023-03-23T11:59:57;1.40;;;1.00;;
77814;SDS011;67002;52.124;21.210;2023-03-23T12:02:34;1.40;;;1.00;;
77814;SDS011;67002;52.124;21.210;2023-03-23T12:08:09;1.00;;;0.90;;
77814;SDS011;67002;52.124;21.210;2023-03-23T12:10:46;1.10;;;1.00;;
77814;SDS011;67002;52.124;21.210;2023-03-23T12:13:31;2.10;;;0.70;;
77814;SDS011;67002;52.124;21.210;2023-03-23T12:16:22;0.80;;;0.80;;
77814;SDS011;67002;52.124;21.210;2023-03-23T12:18:56;1.00;;;0.80;;
77814;SDS011;67002;52.124;21.210;2023-03-23T12:21:30;1.30;;;0.70;;
77814;SDS011;67002;52.124;21.210;2023-03-23T12:26:31;1.10;;;1.00;;
77814;SDS011;67002;52.124;21.210;2023-03-23T12:29:03;0.70;;;0.70;;
77814;SDS011;67002;52.124;21.210;2023-03-23T12:31:56;1.20;;;0.90;;
77814;SDS011;67002;52.124;21.210;2023-03-23T12:34:36;1.00;;;1.00;;
77814;SDS011;67002;52.124;21.210;2023-03-23T12:37:15;1.20;;;1.10;;
77814;SDS011;67002;52.124;21.210;2023-03-23T12:42:51;1.00;;;0.90;;
77814;SDS011;67002;52.124;21.210;2023-03-23T13:00:20;1.00;;;1.00;;
77814;SDS011;67002;52.124;21.210;2023-03-23T13:02:56;1.20;;;1.10;;
77814;SDS011;67002;52.124;21.210;2023-03-23T13:05:40;1.20;;;1.10;;
77814;SDS011;67002;52.124;21.210;2023-03-23T13:08:14;1.20;;;1.10;;
77814;SDS011;67002;52.124;21.210;2023-03-23T13:10:48;1.70;;;1.30;;
77814;SDS011;67002;52.124;21.210;2023-03-23T13:13:23;1.20;;;1.10;;
77814;SDS011;67002;52.124;21.210;2023-03-23T13:15:57;1.30;;;1.10;;
77814;SDS011;67002;52.124;21.210;2023-03-23T13:18:37;1.60;;;1.20;;
77814;SDS011;67002;52.124;21.210;2023-03-23T13:21:13;1.20;;;1.00;;
77814;SDS011;67002;52.124;21.210;2023-03-23T13:23:48;0.70;;;0.70;;
77814;SDS011;67002;52.124;21.210;2023-03-23T13:26:21;1.20;;;1.10;;
77814;SDS011;67002;52.124;21.210;2023-03-23T13:28:55;1.10;;;1.00;;
77814;SDS011;67002;52.124;21.210;2023-03-23T13:31:30;1.50;;;1.20;;
77814;SDS011;67002;52.124;21.210;2023-03-23T13:34:05;1.10;;;1.00;;
77814;SDS011;67002;52.124;21.210;2023-03-23T13:36:40;1.10;;;1.00;;
77814;SDS011;67002;52.124;21.210;2023-03-23T13:39:18;1.60;;;1.50;;
77814;SDS011;67002;52.124;21.210;2023-03-23T13:42:00;1.50;;;1.20;;
77814;SDS011;67002;52.124;21.210;2023-03-23T13:44:42;2.60;;;1.40;;
77814;SDS011;67002;52.124;21.210;2023-03-23T13:47:27;2.60;;;1.30;;
77814;SDS011;67002;52.124;21.210;2023-03-23T13:50:10;1.70;;;1.10;;
77814;SDS011;67002;52.124;21.210;2023-03-23T13:52:56;1.20;;;1.00;;
77814;SDS011;67002;52.124;21.210;2023-03-23T13:55:40;1.80;;;1.30;;
77814;SDS011;67002;52.124;21.210;2023-03-23T13:58:25;1.50;;;1.00;;
77814;SDS011;67002;52.124;21.210;2023-03-23T14:01:11;2.00;;;1.10;;
77814;SDS011;67002;52.124;21.210;2023-03-23T14:03:45;1.80;;;1.20;;
77814;SDS011;67002;52.124;21.210;2023-03-23T14:09:06;1.60;;;0.70;;
77814;SDS011;67002;52.124;21.210;2023-03-23T14:11:54;0.60;;;0.60;;
77814;SDS011;67002;52.124;21.210;2023-03-23T14:14:27;1.10;;;1.00;;
77814;SDS011;67002;52.124;21.210;2023-03-23T14:17:07;1.10;;;1.00;;
77814;SDS011;67002;52.124;21.210;2023-03-23T14:19:40;1.00;;;0.90;;
77814;SDS011;67002;52.124;21.210;2023-03-23T14:22:18;0.90;;;0.80;;
77814;SDS011;67002;52.124;21.210;2023-03-23T14:24:51;1.90;;;1.30;;
77814;SDS011;67002;52.124;21.210;2023-03-23T14:27:36;1.70;;;1.00;;
77814;SDS011;67002;52.124;21.210;2023-03-23T14:30:13;1.20;;;0.70;;
77814;SDS011;67002;52.124;21.210;2023-03-23T14:32:47;1.20;;;0.70;;
77814;SDS011;67002;52.124;21.210;2023-03-23T14:35:19;0.80;;;0.70;;
77814;SDS011;67002;52.124;21.210;2023-03-23T14:40:21;1.70;;;0.80;;
77814;SDS011;67002;52.124;21.210;2023-03-23T14:42:55;2.20;;;1.00;;
77814;SDS011;67002;52.124;21.210;2023-03-23T14:45:26;1.20;;;1.00;;
77814;SDS011;67002;52.124;21.210;2023-03-23T14:47:57;1.30;;;0.90;;
77814;SDS011;67002;52.124;21.210;2023-03-23T14:50:30;0.60;;;0.60;;
77814;SDS011;67002;52.124;21.210;2023-03-23T14:53:11;1.00;;;0.80;;
77814;SDS011;67002;52.124;21.210;2023-03-23T14:55:45;1.10;;;1.00;;
77814;SDS011;67002;52.124;21.210;2023-03-23T14:58:18;1.00;;;0.80;;
77814;SDS011;67002;52.124;21.210;2023-03-23T15:00:52;1.30;;;1.00;;
77814;SDS011;67002;52.124;21.210;2023-03-23T15:03:26;1.10;;;1.00;;
77814;SDS011;67002;52.124;21.210;2023-03-23T15:05:59;1.60;;;1.00;;
77814;SDS011;67002;52.124;21.210;2023-03-23T15:08:34;0.60;;;0.60;;
77814;SDS011;67002;52.124;21.210;2023-03-23T15:11:07;0.60;;;0.60;;
77814;SDS011;67002;52.124;21.210;2023-03-23T15:13:43;1.20;;;1.00;;
77814;SDS011;67002;52.124;21.210;2023-03-23T15:16:26;0.90;;;0.90;;
77814;SDS011;67002;52.124;21.210;2023-03-23T15:18:58;1.10;;;1.00;;
77814;SDS011;67002;52.124;21.210;2023-03-23T15:21:30;2.40;;;0.90;;
77814;SDS011;67002;52.124;21.210;2023-03-23T15:26:54;2.60;;;1.10;;
77814;SDS011;67002;52.124;21.210;2023-03-23T15:29:31;1.00;;;0.90;;
77814;SDS011;67002;52.124;21.210;2023-03-23T15:32:02;1.40;;;1.00;;
77814;SDS011;67002;52.124;21.210;2023-03-23T15:34:34;1.30;;;1.20;;
77814;SDS011;67002;52.124;21.210;2023-03-23T15:37:18;3.10;;;1.00;;
77814;SDS011;67002;52.124;21.210;2023-03-23T15:39:53;2.30;;;0.90;;
77814;SDS011;67002;52.124;21.210;2023-03-23T15:42:26;1.10;;;1.00;;
77814;SDS011;67002;52.124;21.210;2023-03-23T15:45:02;1.00;;;0.90;;
77814;SDS011;67002;52.124;21.210;2023-03-23T15:47:48;0.80;;;0.80;;
77814;SDS011;67002;52.124;21.210;2023-03-23T15:50:20;1.20;;;0.90;;
77814;SDS011;67002;52.124;21.210;2023-03-23T15:53:04;1.70;;;1.00;;
77814;SDS011;67002;52.124;21.210;2023-03-23T15:55:47;1.70;;;0.90;;
77814;SDS011;67002;52.124;21.210;2023-03-23T15:58:18;2.30;;;0.90;;
77814;SDS011;67002;52.124;21.210;2023-03-23T16:00:50;1.60;;;0.80;;
77814;SDS011;67002;52.124;21.210;2023-03-23T16:03:23;1.10;;;1.00;;
77814;SDS011;67002;52.124;21.210;2023-03-23T16:05:56;1.00;;;0.90;;
77814;SDS011;67002;52.124;21.210;2023-03-23T16:08:31;3.20;;;1.00;;
77814;SDS011;67002;52.124;21.210;2023-03-23T16:11:09;1.40;;;1.10;;
77814;SDS011;67002;52.124;21.210;2023-03-23T16:13:42;1.10;;;1.00;;
77814;SDS011;67002;52.124;21.210;2023-03-23T16:16:15;2.00;;;1.10;;